sensor_id;sensor_type;location;lat;lon;timestamp;P1;durP1;ratioP1;P2;durP2;ratioP2
48651;SDS011;34442;52.362;-1.302;2022-07-23T00:00:36;1.67;;;0.90;;
48651;SDS011;34442;52.362;-1.302;2022-07-23T00:03:02;1.42;;;0.90;;
48651;SDS011;34442;52.362;-1.302;2022-07-23T00:05:28;0.98;;;0.80;;
48651;SDS011;34442;52.362;-1.302;2022-07-23T00:07:54;1.10;;;0.80;;
48651;SDS011;34442;52.362;-1.302;2022-07-23T00:10:20;1.38;;;0.80;;
48651;SDS011;34442;52.362;-1.302;2022-07-23T00:12:46;1.10;;;0.88;;
48651;SDS011;34442;52.362;-1.302;2022-07-23T00:15:12;1.65;;;1.05;;
48651;SDS011;34442;52.362;-1.302;2022-07-23T00:17:38;1.98;;;0.70;;
48651;SDS011;34442;52.362;-1.302;2022-07-23T00:20:04;1.52;;;0.82;;
48651;SDS011;34442;52.362;-1.302;2022-07-23T00:22:31;0.90;;;0.80;;
48651;SDS011;34442;52.362;-1.302;2022-07-23T00:24:57;1.42;;;0.90;;
48651;SDS011;34442;52.362;-1.302;2022-07-23T00:27:23;1.88;;;0.90;;
48651;SDS011;34442;52.362;-1.302;2022-07-23T00:29:49;1.35;;;0.95;;
48651;SDS011;34442;52.362;-1.302;2022-07-23T00:32:15;1.80;;;1.10;;
48651;SDS011;34442;52.362;-1.302;2022-07-23T00:34:41;0.90;;;0.70;;
48651;SDS011;34442;52.362;-1.302;2022-07-23T00:37:07;1.20;;;0.90;;
48651;SDS011;34442;52.362;-1.302;2022-07-23T00:39:34;0.98;;;0.75;;
48651;SDS011;34442;52.362;-1.302;2022-07-23T00:42:00;1.67;;;0.90;;
48651;SDS011;34442;52.362;-1.302;2022-07-23T00:44:27;1.38;;;0.90;;
48651;SDS011;34442;52.362;-1.302;2022-07-23T00:46:55;2.15;;;0.80;;
48651;SDS011;34442;52.362;-1.302;2022-07-23T00:49:23;1.15;;;0.82;;
48651;SDS011;34442;52.362;-1.302;2022-07-23T00:51:51;1.13;;;0.80;;
48651;SDS011;34442;52.362;-1.302;2022-07-23T00:54:18;1.67;;;0.88;;
48651;SDS011;34442;52.362;-1.302;2022-07-23T00:56:45;1.25;;;0.90;;
48651;SDS011;34442;52.362;-1.302;2022-07-23T00:59:12;1.05;;;0.90;;
48651;SDS011;34442;52.362;-1.302;2022-07-23T01:01:39;1.25;;;0.75;;
48651;SDS011;34442;52.362;-1.302;2022-07-23T01:04:06;1.13;;;0.85;;
48651;SDS011;34442;52.362;-1.302;2022-07-23T01:06:34;0.68;;;0.68;;
48651;SDS011;34442;52.362;-1.302;2022-07-23T01:09:02;1.63;;;0.90;;
48651;SDS011;34442;52.362;-1.302;2022-07-23T01:11:29;1.67;;;0.80;;
48651;SDS011;34442;52.362;-1.302;2022-07-23T01:13:55;1.48;;;0.90;;
48651;SDS011;34442;52.362;-1.302;2022-07-23T01:16:21;1.95;;;1.10;;
48651;SDS011;34442;52.362;-1.302;2022-07-23T01:18:47;0.77;;;0.70;;
48651;SDS011;34442;52.362;-1.302;2022-07-23T01:21:13;1.35;;;0.80;;
48651;SDS011;34442;52.362;-1.302;2022-07-23T01:23:43;2.13;;;0.77;;
48651;SDS011;34442;52.362;-1.302;2022-07-23T01:26:09;1.17;;;0.98;;
48651;SDS011;34442;52.362;-1.302;2022-07-23T01:28:35;1.92;;;0.90;;
48651;SDS011;34442;52.362;-1.302;2022-07-23T01:31:01;0.90;;;0.80;;
48651;SDS011;34442;52.362;-1.302;2022-07-23T01:33:27;0.90;;;0.70;;
48651;SDS011;34442;52.362;-1.302;2022-07-23T01:35:53;0.90;;;0.80;;
48651;SDS011;34442;52.362;-1.302;2022-07-23T01:38:19;1.52;;;1.00;;
48651;SDS011;34442;52.362;-1.302;2022-07-23T01:40:45;0.93;;;0.80;;
48651;SDS011;34442;52.362;-1.302;2022-07-23T01:43:11;1.00;;;0.70;;
48651;SDS011;34442;52.362;-1.302;2022-07-23T01:45:37;1.35;;;0.82;;
48651;SDS011;34442;52.362;-1.302;2022-07-23T01:48:03;1.05;;;0.88;;
48651;SDS011;34442;52.362;-1.302;2022-07-23T01:50:29;1.52;;;1.00;;
48651;SDS011;34442;52.362;-1.302;2022-07-23T01:52:55;1.67;;;1.10;;
48651;SDS011;34442;52.362;-1.302;2022-07-23T01:55:21;1.90;;;1.00;;
48651;SDS011;34442;52.362;-1.302;2022-07-23T01:57:47;2.05;;;0.90;;
48651;SDS011;34442;52.362;-1.302;2022-07-23T02:00:13;1.85;;;0.90;;
48651;SDS011;34442;52.362;-1.302;2022-07-23T02:02:40;3.00;;;0.98;;
48651;SDS011;34442;52.362;-1.302;2022-07-23T02:05:06;2.33;;;1.30;;
48651;SDS011;34442;52.362;-1.302;2022-07-23T02:07:32;1.83;;;1.08;;
48651;SDS011;34442;52.362;-1.302;2022-07-23T02:09:58;2.15;;;1.25;;
48651;SDS011;34442;52.362;-1.302;2022-07-23T02:12:24;2.25;;;1.20;;
48651;SDS011;34442;52.362;-1.302;2022-07-23T02:14:50;3.38;;;1.40;;
48651;SDS011;34442;52.362;-1.302;2022-07-23T02:17:16;2.08;;;1.15;;
48651;SDS011;34442;52.362;-1.302;2022-07-23T02:19:42;2.22;;;1.35;;
48651;SDS011;34442;52.362;-1.302;2022-07-23T02:22:08;1.65;;;1.20;;
48651;SDS011;34442;52.362;-1.302;2022-07-23T02:24:34;2.40;;;1.35;;
48651;SDS011;34442;52.362;-1.302;2022-07-23T02:27:00;2.15;;;1.27;;
48651;SDS011;34442;52.362;-1.302;2022-07-23T02:29:26;1.75;;;1.27;;
48651;SDS011;34442;52.362;-1.302;2022-07-23T02:31:52;2.30;;;1.30;;
48651;SDS011;34442;52.362;-1.302;2022-07-23T02:34:18;2.25;;;1.10;;
48651;SDS011;34442;52.362;-1.302;2022-07-23T02:36:44;1.58;;;1.10;;
48651;SDS011;34442;52.362;-1.302;2022-07-23T02:39:11;1.42;;;1.10;;
48651;SDS011;34442;52.362;-1.302;2022-07-23T02:41:37;2.05;;;1.30;;
48651;SDS011;34442;52.362;-1.302;2022-07-23T02:44:03;2.08;;;1.00;;
48651;SDS011;34442;52.362;-1.302;2022-07-23T02:46:29;1.60;;;0.90;;
48651;SDS011;34442;52.362;-1.302;2022-07-23T02:48:55;1.73;;;0.98;;
48651;SDS011;34442;52.362;-1.302;2022-07-23T02:51:21;1.67;;;1.00;;
48651;SDS011;34442;52.362;-1.302;2022-07-23T02:53:47;1.33;;;0.88;;
48651;SDS011;34442;52.362;-1.302;2022-07-23T02:56:13;2.03;;;1.25;;
48651;SDS011;34442;52.362;-1.302;2022-07-23T02:58:39;2.45;;;1.10;;
48651;SDS011;34442;52.362;-1.302;2022-07-23T03:01:05;1.65;;;1.10;;
48651;SDS011;34442;52.362;-1.302;2022-07-23T03:03:31;2.20;;;1.15;;
48651;SDS011;34442;52.362;-1.302;2022-07-23T03:05:58;1.67;;;1.00;;
48651;SDS011;34442;52.362;-1.302;2022-07-23T03:08:24;2.08;;;1.20;;
48651;SDS011;34442;52.362;-1.302;2022-07-23T03:10:50;1.98;;;1.00;;
48651;SDS011;34442;52.362;-1.302;2022-07-23T03:13:16;1.77;;;1.10;;
48651;SDS011;34442;52.362;-1.302;2022-07-23T03:15:42;1.92;;;1.20;;
48651;SDS011;34442;52.362;-1.302;2022-07-23T03:18:08;1.77;;;1.05;;
48651;SDS011;34442;52.362;-1.302;2022-07-23T03:20:34;2.55;;;1.45;;
48651;SDS011;34442;52.362;-1.302;2022-07-23T03:23:01;1.83;;;1.17;;
48651;SDS011;34442;52.362;-1.302;2022-07-23T03:25:27;2.35;;;1.10;;
48651;SDS011;34442;52.362;-1.302;2022-07-23T03:27:53;1.90;;;1.13;;
48651;SDS011;34442;52.362;-1.302;2022-07-23T03:30:19;1.65;;;1.02;;
48651;SDS011;34442;52.362;-1.302;2022-07-23T03:32:45;3.42;;;1.40;;
48651;SDS011;34442;52.362;-1.302;2022-07-23T03:35:11;2.65;;;1.30;;
48651;SDS011;34442;52.362;-1.302;2022-07-23T03:37:37;2.22;;;1.20;;
48651;SDS011;34442;52.362;-1.302;2022-07-23T03:40:04;1.65;;;1.20;;
48651;SDS011;34442;52.362;-1.302;2022-07-23T03:42:30;1.85;;;1.10;;
48651;SDS011;34442;52.362;-1.302;2022-07-23T03:44:56;2.72;;;1.30;;
48651;SDS011;34442;52.362;-1.302;2022-07-23T03:47:22;2.65;;;1.48;;
48651;SDS011;34442;52.362;-1.302;2022-07-23T03:49:49;4.57;;;1.60;;
48651;SDS011;34442;52.362;-1.302;2022-07-23T03:52:15;2.42;;;1.48;;
48651;SDS011;34442;52.362;-1.302;2022-07-23T03:54:41;3.15;;;1.85;;
48651;SDS011;34442;52.362;-1.302;2022-07-23T03:57:07;3.95;;;1.83;;
48651;SDS011;34442;52.362;-1.302;2022-07-23T03:59:33;3.03;;;1.88;;
48651;SDS011;34442;52.362;-1.302;2022-07-23T04:01:59;3.30;;;1.50;;
48651;SDS011;34442;52.362;-1.302;2022-07-23T04:04:25;3.22;;;1.50;;
48651;SDS011;34442;52.362;-1.302;2022-07-23T04:06:51;2.88;;;1.50;;
48651;SDS011;34442;52.362;-1.302;2022-07-23T04:09:17;3.03;;;1.60;;
48651;SDS011;34442;52.362;-1.302;2022-07-23T04:11:43;3.63;;;1.58;;
48651;SDS011;34442;52.362;-1.302;2022-07-23T04:14:09;2.58;;;1.58;;
48651;SDS011;34442;52.362;-1.302;2022-07-23T04:16:36;3.20;;;1.40;;
48651;SDS011;34442;52.362;-1.302;2022-07-23T04:19:02;3.80;;;1.80;;
48651;SDS011;34442;52.362;-1.302;2022-07-23T04:21:30;2.40;;;1.58;;
48651;SDS011;34442;52.362;-1.302;2022-07-23T04:23:56;2.67;;;1.48;;
48651;SDS011;34442;52.362;-1.302;2022-07-23T04:26:22;2.97;;;1.50;;
48651;SDS011;34442;52.362;-1.302;2022-07-23T04:28:48;3.15;;;1.38;;
48651;SDS011;34442;52.362;-1.302;2022-07-23T04:31:14;2.85;;;1.30;;
48651;SDS011;34442;52.362;-1.302;2022-07-23T04:33:40;2.88;;;1.63;;
48651;SDS011;34442;52.362;-1.302;2022-07-23T04:36:06;2.58;;;1.58;;
48651;SDS011;34442;52.362;-1.302;2022-07-23T04:38:32;2.92;;;1.40;;
48651;SDS011;34442;52.362;-1.302;2022-07-23T04:40:58;2.30;;;1.35;;
48651;SDS011;34442;52.362;-1.302;2022-07-23T04:43:24;3.33;;;1.42;;
48651;SDS011;34442;52.362;-1.302;2022-07-23T04:45:51;2.88;;;1.58;;
48651;SDS011;34442;52.362;-1.302;2022-07-23T04:48:17;3.28;;;1.48;;
48651;SDS011;34442;52.362;-1.302;2022-07-23T04:50:43;4.18;;;1.80;;
48651;SDS011;34442;52.362;-1.302;2022-07-23T04:53:09;3.70;;;1.85;;
48651;SDS011;34442;52.362;-1.302;2022-07-23T04:55:35;3.53;;;1.75;;
48651;SDS011;34442;52.362;-1.302;2022-07-23T04:58:01;2.53;;;1.52;;
48651;SDS011;34442;52.362;-1.302;2022-07-23T05:00:27;3.28;;;1.70;;
48651;SDS011;34442;52.362;-1.302;2022-07-23T05:02:53;2.63;;;1.60;;
48651;SDS011;34442;52.362;-1.302;2022-07-23T05:05:19;3.22;;;1.70;;
48651;SDS011;34442;52.362;-1.302;2022-07-23T05:07:45;3.10;;;1.88;;
48651;SDS011;34442;52.362;-1.302;2022-07-23T05:10:11;4.32;;;1.70;;
48651;SDS011;34442;52.362;-1.302;2022-07-23T05:12:37;4.05;;;1.75;;
48651;SDS011;34442;52.362;-1.302;2022-07-23T05:15:03;4.00;;;1.80;;
48651;SDS011;34442;52.362;-1.302;2022-07-23T05:17:29;4.07;;;1.90;;
48651;SDS011;34442;52.362;-1.302;2022-07-23T05:19:55;3.08;;;1.83;;
48651;SDS011;34442;52.362;-1.302;2022-07-23T05:22:21;3.80;;;1.63;;
48651;SDS011;34442;52.362;-1.302;2022-07-23T05:24:47;2.35;;;1.42;;
48651;SDS011;34442;52.362;-1.302;2022-07-23T05:27:13;3.53;;;1.88;;
48651;SDS011;34442;52.362;-1.302;2022-07-23T05:29:39;3.85;;;1.90;;
48651;SDS011;34442;52.362;-1.302;2022-07-23T05:32:05;3.28;;;1.60;;
48651;SDS011;34442;52.362;-1.302;2022-07-23T05:34:31;4.10;;;1.90;;
48651;SDS011;34442;52.362;-1.302;2022-07-23T05:36:58;3.22;;;1.70;;
48651;SDS011;34442;52.362;-1.302;2022-07-23T05:39:24;2.80;;;1.58;;
48651;SDS011;34442;52.362;-1.302;2022-07-23T05:41:50;3.42;;;1.48;;
48651;SDS011;34442;52.362;-1.302;2022-07-23T05:44:16;3.65;;;2.00;;
48651;SDS011;34442;52.362;-1.302;2022-07-23T05:46:42;4.43;;;1.95;;
48651;SDS011;34442;52.362;-1.302;2022-07-23T05:49:08;3.10;;;1.63;;
48651;SDS011;34442;52.362;-1.302;2022-07-23T05:51:34;3.30;;;1.80;;
48651;SDS011;34442;52.362;-1.302;2022-07-23T05:54:00;4.85;;;1.98;;
48651;SDS011;34442;52.362;-1.302;2022-07-23T05:56:26;4.10;;;1.80;;
48651;SDS011;34442;52.362;-1.302;2022-07-23T05:58:52;4.13;;;1.90;;
48651;SDS011;34442;52.362;-1.302;2022-07-23T06:01:18;4.13;;;2.17;;
48651;SDS011;34442;52.362;-1.302;2022-07-23T06:03:44;3.00;;;1.67;;
48651;SDS011;34442;52.362;-1.302;2022-07-23T06:06:10;3.20;;;1.70;;
48651;SDS011;34442;52.362;-1.302;2022-07-23T06:08:36;3.92;;;1.75;;
48651;SDS011;34442;52.362;-1.302;2022-07-23T06:11:04;3.25;;;1.77;;
48651;SDS011;34442;52.362;-1.302;2022-07-23T06:13:30;2.70;;;1.60;;
48651;SDS011;34442;52.362;-1.302;2022-07-23T06:15:59;3.40;;;1.90;;
48651;SDS011;34442;52.362;-1.302;2022-07-23T06:18:25;3.45;;;1.92;;
48651;SDS011;34442;52.362;-1.302;2022-07-23T06:20:51;2.45;;;1.30;;
48651;SDS011;34442;52.362;-1.302;2022-07-23T06:23:17;3.22;;;1.80;;
48651;SDS011;34442;52.362;-1.302;2022-07-23T06:25:43;2.88;;;1.60;;
48651;SDS011;34442;52.362;-1.302;2022-07-23T06:28:09;4.07;;;1.90;;
48651;SDS011;34442;52.362;-1.302;2022-07-23T06:30:35;3.47;;;1.75;;
48651;SDS011;34442;52.362;-1.302;2022-07-23T06:33:01;2.97;;;1.70;;
48651;SDS011;34442;52.362;-1.302;2022-07-23T06:35:27;3.60;;;2.13;;
48651;SDS011;34442;52.362;-1.302;2022-07-23T06:37:53;3.75;;;1.98;;
48651;SDS011;34442;52.362;-1.302;2022-07-23T06:40:19;3.67;;;2.22;;
48651;SDS011;34442;52.362;-1.302;2022-07-23T06:42:45;4.38;;;1.80;;
48651;SDS011;34442;52.362;-1.302;2022-07-23T06:45:11;3.78;;;1.98;;
48651;SDS011;34442;52.362;-1.302;2022-07-23T06:47:37;4.30;;;2.17;;
48651;SDS011;34442;52.362;-1.302;2022-07-23T06:50:04;3.20;;;1.90;;
48651;SDS011;34442;52.362;-1.302;2022-07-23T06:52:31;4.22;;;2.20;;
48651;SDS011;34442;52.362;-1.302;2022-07-23T06:54:57;4.03;;;2.15;;
48651;SDS011;34442;52.362;-1.302;2022-07-23T06:57:23;3.75;;;2.05;;
48651;SDS011;34442;52.362;-1.302;2022-07-23T06:59:51;4.00;;;2.00;;
48651;SDS011;34442;52.362;-1.302;2022-07-23T07:02:17;3.38;;;1.75;;
48651;SDS011;34442;52.362;-1.302;2022-07-23T07:04:43;3.42;;;2.00;;
48651;SDS011;34442;52.362;-1.302;2022-07-23T07:07:09;4.85;;;2.10;;
48651;SDS011;34442;52.362;-1.302;2022-07-23T07:09:35;3.75;;;1.98;;
48651;SDS011;34442;52.362;-1.302;2022-07-23T07:12:01;3.50;;;1.73;;
48651;SDS011;34442;52.362;-1.302;2022-07-23T07:14:28;3.25;;;1.88;;
48651;SDS011;34442;52.362;-1.302;2022-07-23T07:16:53;3.88;;;2.20;;
48651;SDS011;34442;52.362;-1.302;2022-07-23T07:19:20;4.00;;;2.00;;
48651;SDS011;34442;52.362;-1.302;2022-07-23T07:21:46;3.72;;;2.03;;
48651;SDS011;34442;52.362;-1.302;2022-07-23T07:24:11;3.55;;;1.98;;
48651;SDS011;34442;52.362;-1.302;2022-07-23T07:26:38;4.68;;;2.60;;
48651;SDS011;34442;52.362;-1.302;2022-07-23T07:29:05;3.83;;;1.85;;
48651;SDS011;34442;52.362;-1.302;2022-07-23T07:31:31;4.22;;;2.17;;
48651;SDS011;34442;52.362;-1.302;2022-07-23T07:33:57;3.13;;;1.60;;
48651;SDS011;34442;52.362;-1.302;2022-07-23T07:36:24;3.97;;;1.75;;
48651;SDS011;34442;52.362;-1.302;2022-07-23T07:38:50;3.53;;;2.08;;
48651;SDS011;34442;52.362;-1.302;2022-07-23T07:41:16;4.05;;;2.00;;
48651;SDS011;34442;52.362;-1.302;2022-07-23T07:43:42;3.47;;;1.83;;
48651;SDS011;34442;52.362;-1.302;2022-07-23T07:46:08;4.05;;;2.75;;
48651;SDS011;34442;52.362;-1.302;2022-07-23T07:48:36;3.17;;;1.83;;
48651;SDS011;34442;52.362;-1.302;2022-07-23T07:51:03;4.47;;;2.47;;
48651;SDS011;34442;52.362;-1.302;2022-07-23T07:53:29;3.63;;;1.75;;
48651;SDS011;34442;52.362;-1.302;2022-07-23T07:55:56;3.75;;;1.83;;
48651;SDS011;34442;52.362;-1.302;2022-07-23T07:58:22;2.88;;;1.67;;
48651;SDS011;34442;52.362;-1.302;2022-07-23T08:00:48;4.55;;;2.63;;
48651;SDS011;34442;52.362;-1.302;2022-07-23T08:03:14;3.60;;;1.95;;
48651;SDS011;34442;52.362;-1.302;2022-07-23T08:05:40;4.05;;;1.90;;
48651;SDS011;34442;52.362;-1.302;2022-07-23T08:08:06;4.28;;;2.30;;
48651;SDS011;34442;52.362;-1.302;2022-07-23T08:10:32;3.88;;;2.15;;
48651;SDS011;34442;52.362;-1.302;2022-07-23T08:12:58;3.75;;;2.00;;
48651;SDS011;34442;52.362;-1.302;2022-07-23T08:15:26;3.45;;;1.83;;
48651;SDS011;34442;52.362;-1.302;2022-07-23T08:17:53;3.00;;;1.50;;
48651;SDS011;34442;52.362;-1.302;2022-07-23T08:20:21;2.55;;;1.58;;
48651;SDS011;34442;52.362;-1.302;2022-07-23T08:25:37;3.28;;;1.75;;
48651;SDS011;34442;52.362;-1.302;2022-07-23T08:28:06;2.67;;;1.50;;
48651;SDS011;34442;52.362;-1.302;2022-07-23T08:30:35;3.05;;;1.52;;
48651;SDS011;34442;52.362;-1.302;2022-07-23T08:33:03;3.35;;;1.42;;
48651;SDS011;34442;52.362;-1.302;2022-07-23T08:35:31;2.88;;;1.60;;
48651;SDS011;34442;52.362;-1.302;2022-07-23T08:38:00;2.95;;;1.50;;
48651;SDS011;34442;52.362;-1.302;2022-07-23T08:40:28;2.65;;;1.30;;
48651;SDS011;34442;52.362;-1.302;2022-07-23T08:42:56;2.35;;;1.35;;
48651;SDS011;34442;52.362;-1.302;2022-07-23T08:45:23;3.45;;;1.60;;
48651;SDS011;34442;52.362;-1.302;2022-07-23T08:47:52;2.40;;;1.15;;
48651;SDS011;34442;52.362;-1.302;2022-07-23T08:50:21;2.33;;;1.20;;
48651;SDS011;34442;52.362;-1.302;2022-07-23T08:52:49;2.15;;;1.10;;
48651;SDS011;34442;52.362;-1.302;2022-07-23T08:55:17;1.63;;;1.00;;
48651;SDS011;34442;52.362;-1.302;2022-07-23T08:57:44;1.83;;;1.02;;
48651;SDS011;34442;52.362;-1.302;2022-07-23T09:00:13;1.58;;;1.02;;
48651;SDS011;34442;52.362;-1.302;2022-07-23T09:02:40;1.80;;;1.30;;
48651;SDS011;34442;52.362;-1.302;2022-07-23T09:05:08;1.83;;;1.00;;
48651;SDS011;34442;52.362;-1.302;2022-07-23T09:07:37;1.67;;;1.10;;
48651;SDS011;34442;52.362;-1.302;2022-07-23T09:10:05;2.58;;;1.17;;
48651;SDS011;34442;52.362;-1.302;2022-07-23T09:12:33;1.88;;;0.98;;
48651;SDS011;34442;52.362;-1.302;2022-07-23T09:15:03;1.45;;;1.00;;
48651;SDS011;34442;52.362;-1.302;2022-07-23T09:17:37;1.55;;;1.00;;
48651;SDS011;34442;52.362;-1.302;2022-07-23T09:22:46;1.55;;;0.80;;
48651;SDS011;34442;52.362;-1.302;2022-07-23T09:25:14;2.30;;;1.15;;
48651;SDS011;34442;52.362;-1.302;2022-07-23T09:30:19;1.50;;;0.90;;
48651;SDS011;34442;52.362;-1.302;2022-07-23T09:35:45;1.85;;;1.00;;
48651;SDS011;34442;52.362;-1.302;2022-07-23T09:38:11;1.63;;;0.90;;
48651;SDS011;34442;52.362;-1.302;2022-07-23T09:40:37;1.85;;;0.88;;
48651;SDS011;34442;52.362;-1.302;2022-07-23T09:43:04;1.27;;;0.80;;
48651;SDS011;34442;52.362;-1.302;2022-07-23T09:45:30;1.60;;;0.80;;
48651;SDS011;34442;52.362;-1.302;2022-07-23T09:48:12;1.52;;;0.80;;
48651;SDS011;34442;52.362;-1.302;2022-07-23T09:50:43;1.48;;;0.98;;
48651;SDS011;34442;52.362;-1.302;2022-07-23T09:53:10;0.85;;;0.70;;
48651;SDS011;34442;52.362;-1.302;2022-07-23T09:55:50;1.83;;;0.98;;
48651;SDS011;34442;52.362;-1.302;2022-07-23T09:58:19;0.85;;;0.80;;
48651;SDS011;34442;52.362;-1.302;2022-07-23T10:00:47;2.13;;;0.90;;
48651;SDS011;34442;52.362;-1.302;2022-07-23T10:03:15;0.98;;;0.63;;
48651;SDS011;34442;52.362;-1.302;2022-07-23T10:05:43;1.45;;;0.82;;
48651;SDS011;34442;52.362;-1.302;2022-07-23T10:08:11;1.00;;;0.80;;
48651;SDS011;34442;52.362;-1.302;2022-07-23T10:10:40;1.58;;;0.65;;
48651;SDS011;34442;52.362;-1.302;2022-07-23T10:13:07;1.25;;;0.70;;
48651;SDS011;34442;52.362;-1.302;2022-07-23T10:15:48;1.65;;;0.93;;
48651;SDS011;34442;52.362;-1.302;2022-07-23T10:18:15;1.42;;;0.90;;
48651;SDS011;34442;52.362;-1.302;2022-07-23T10:20:42;1.70;;;0.90;;
48651;SDS011;34442;52.362;-1.302;2022-07-23T10:31:46;0.90;;;0.70;;
48651;SDS011;34442;52.362;-1.302;2022-07-23T10:40:14;2.10;;;1.10;;
48651;SDS011;34442;52.362;-1.302;2022-07-23T10:42:43;2.00;;;0.88;;
48651;SDS011;34442;52.362;-1.302;2022-07-23T10:45:27;1.67;;;0.90;;
48651;SDS011;34442;52.362;-1.302;2022-07-23T10:50:44;0.93;;;0.70;;
48651;SDS011;34442;52.362;-1.302;2022-07-23T10:56:48;1.98;;;0.90;;
48651;SDS011;34442;52.362;-1.302;2022-07-23T11:01:47;0.63;;;0.60;;
48651;SDS011;34442;52.362;-1.302;2022-07-23T11:04:14;0.80;;;0.73;;
48651;SDS011;34442;52.362;-1.302;2022-07-23T11:09:27;1.35;;;0.77;;
48651;SDS011;34442;52.362;-1.302;2022-07-23T11:17:27;1.00;;;0.68;;
48651;SDS011;34442;52.362;-1.302;2022-07-23T11:25:10;1.85;;;0.90;;
48651;SDS011;34442;52.362;-1.302;2022-07-23T11:30:11;1.08;;;0.77;;
48651;SDS011;34442;52.362;-1.302;2022-07-23T11:35:37;1.13;;;0.80;;
48651;SDS011;34442;52.362;-1.302;2022-07-23T11:38:11;1.67;;;0.80;;
48651;SDS011;34442;52.362;-1.302;2022-07-23T11:40:39;1.35;;;0.80;;
48651;SDS011;34442;52.362;-1.302;2022-07-23T11:43:08;0.93;;;0.70;;
48651;SDS011;34442;52.362;-1.302;2022-07-23T11:45:39;1.15;;;0.70;;
48651;SDS011;34442;52.362;-1.302;2022-07-23T11:48:20;0.75;;;0.57;;
48651;SDS011;34442;52.362;-1.302;2022-07-23T11:50:49;0.40;;;0.40;;
48651;SDS011;34442;52.362;-1.302;2022-07-23T11:53:26;0.85;;;0.50;;
48651;SDS011;34442;52.362;-1.302;2022-07-23T11:55:53;0.82;;;0.70;;
48651;SDS011;34442;52.362;-1.302;2022-07-23T11:58:20;0.47;;;0.30;;
48651;SDS011;34442;52.362;-1.302;2022-07-23T12:00:47;0.73;;;0.55;;
48651;SDS011;34442;52.362;-1.302;2022-07-23T12:03:13;1.77;;;0.70;;
48651;SDS011;34442;52.362;-1.302;2022-07-23T12:05:39;1.60;;;0.70;;
48651;SDS011;34442;52.362;-1.302;2022-07-23T12:08:08;0.95;;;0.65;;
48651;SDS011;34442;52.362;-1.302;2022-07-23T12:10:42;1.25;;;0.68;;
48651;SDS011;34442;52.362;-1.302;2022-07-23T12:13:16;0.57;;;0.50;;
48651;SDS011;34442;52.362;-1.302;2022-07-23T12:15:45;0.60;;;0.60;;
48651;SDS011;34442;52.362;-1.302;2022-07-23T12:18:17;0.85;;;0.60;;
48651;SDS011;34442;52.362;-1.302;2022-07-23T12:20:47;1.27;;;0.70;;
48651;SDS011;34442;52.362;-1.302;2022-07-23T12:23:17;1.20;;;0.60;;
48651;SDS011;34442;52.362;-1.302;2022-07-23T12:25:45;1.08;;;0.60;;
48651;SDS011;34442;52.362;-1.302;2022-07-23T12:28:12;1.00;;;0.70;;
48651;SDS011;34442;52.362;-1.302;2022-07-23T12:30:54;1.08;;;0.65;;
48651;SDS011;34442;52.362;-1.302;2022-07-23T12:35:58;1.92;;;0.65;;
48651;SDS011;34442;52.362;-1.302;2022-07-23T12:38:42;0.75;;;0.60;;
48651;SDS011;34442;52.362;-1.302;2022-07-23T12:41:17;0.90;;;0.60;;
48651;SDS011;34442;52.362;-1.302;2022-07-23T12:43:45;0.45;;;0.45;;
48651;SDS011;34442;52.362;-1.302;2022-07-23T12:46:16;1.00;;;0.50;;
48651;SDS011;34442;52.362;-1.302;2022-07-23T12:51:16;1.48;;;0.73;;
48651;SDS011;34442;52.362;-1.302;2022-07-23T12:53:55;1.50;;;0.90;;
48651;SDS011;34442;52.362;-1.302;2022-07-23T12:58:59;1.17;;;0.73;;
48651;SDS011;34442;52.362;-1.302;2022-07-23T13:01:36;0.75;;;0.60;;
48651;SDS011;34442;52.362;-1.302;2022-07-23T13:04:22;0.98;;;0.68;;
48651;SDS011;34442;52.362;-1.302;2022-07-23T13:06:50;1.63;;;0.80;;
48651;SDS011;34442;52.362;-1.302;2022-07-23T13:09:21;0.85;;;0.55;;
48651;SDS011;34442;52.362;-1.302;2022-07-23T13:11:49;0.63;;;0.50;;
48651;SDS011;34442;52.362;-1.302;2022-07-23T13:14:16;1.02;;;0.70;;
48651;SDS011;34442;52.362;-1.302;2022-07-23T13:16:44;0.60;;;0.40;;
48651;SDS011;34442;52.362;-1.302;2022-07-23T13:19:10;1.05;;;0.70;;
48651;SDS011;34442;52.362;-1.302;2022-07-23T13:21:37;0.80;;;0.70;;
48651;SDS011;34442;52.362;-1.302;2022-07-23T13:24:03;1.17;;;0.60;;
48651;SDS011;34442;52.362;-1.302;2022-07-23T13:26:31;0.43;;;0.43;;
48651;SDS011;34442;52.362;-1.302;2022-07-23T13:28:57;1.33;;;0.70;;
48651;SDS011;34442;52.362;-1.302;2022-07-23T13:31:24;0.93;;;0.70;;
48651;SDS011;34442;52.362;-1.302;2022-07-23T13:33:50;0.68;;;0.60;;
48651;SDS011;34442;52.362;-1.302;2022-07-23T13:36:16;0.40;;;0.40;;
48651;SDS011;34442;52.362;-1.302;2022-07-23T13:38:42;1.35;;;0.80;;
48651;SDS011;34442;52.362;-1.302;2022-07-23T13:41:08;0.75;;;0.60;;
48651;SDS011;34442;52.362;-1.302;2022-07-23T13:43:34;1.27;;;0.80;;
48651;SDS011;34442;52.362;-1.302;2022-07-23T13:46:00;2.70;;;0.93;;
48651;SDS011;34442;52.362;-1.302;2022-07-23T13:48:26;0.65;;;0.65;;
48651;SDS011;34442;52.362;-1.302;2022-07-23T13:50:52;0.63;;;0.55;;
48651;SDS011;34442;52.362;-1.302;2022-07-23T13:53:20;0.82;;;0.60;;
48651;SDS011;34442;52.362;-1.302;2022-07-23T13:55:47;0.65;;;0.60;;
48651;SDS011;34442;52.362;-1.302;2022-07-23T13:58:18;0.85;;;0.60;;
48651;SDS011;34442;52.362;-1.302;2022-07-23T14:00:46;0.50;;;0.50;;
48651;SDS011;34442;52.362;-1.302;2022-07-23T14:03:14;0.60;;;0.50;;
48651;SDS011;34442;52.362;-1.302;2022-07-23T14:05:41;1.83;;;0.80;;
48651;SDS011;34442;52.362;-1.302;2022-07-23T14:08:08;1.05;;;0.70;;
48651;SDS011;34442;52.362;-1.302;2022-07-23T14:10:35;0.88;;;0.65;;
48651;SDS011;34442;52.362;-1.302;2022-07-23T14:13:02;1.45;;;0.80;;
48651;SDS011;34442;52.362;-1.302;2022-07-23T14:15:29;0.52;;;0.43;;
48651;SDS011;34442;52.362;-1.302;2022-07-23T14:17:57;0.70;;;0.40;;
48651;SDS011;34442;52.362;-1.302;2022-07-23T14:20:24;0.52;;;0.52;;
48651;SDS011;34442;52.362;-1.302;2022-07-23T14:22:51;0.55;;;0.50;;
48651;SDS011;34442;52.362;-1.302;2022-07-23T14:25:18;0.93;;;0.60;;
48651;SDS011;34442;52.362;-1.302;2022-07-23T14:27:44;0.65;;;0.47;;
48651;SDS011;34442;52.362;-1.302;2022-07-23T14:30:10;0.63;;;0.40;;
48651;SDS011;34442;52.362;-1.302;2022-07-23T14:32:37;1.08;;;0.63;;
48651;SDS011;34442;52.362;-1.302;2022-07-23T14:35:04;1.40;;;0.70;;
48651;SDS011;34442;52.362;-1.302;2022-07-23T14:37:31;0.30;;;0.30;;
48651;SDS011;34442;52.362;-1.302;2022-07-23T14:39:57;0.47;;;0.47;;
48651;SDS011;34442;52.362;-1.302;2022-07-23T14:42:23;0.68;;;0.50;;
48651;SDS011;34442;52.362;-1.302;2022-07-23T14:44:49;0.47;;;0.32;;
48651;SDS011;34442;52.362;-1.302;2022-07-23T14:47:15;1.90;;;0.80;;
48651;SDS011;34442;52.362;-1.302;2022-07-23T14:49:41;1.02;;;0.63;;
48651;SDS011;34442;52.362;-1.302;2022-07-23T14:52:08;1.40;;;0.80;;
48651;SDS011;34442;52.362;-1.302;2022-07-23T14:54:34;1.15;;;0.70;;
48651;SDS011;34442;52.362;-1.302;2022-07-23T14:57:00;1.10;;;0.63;;
48651;SDS011;34442;52.362;-1.302;2022-07-23T14:59:28;1.83;;;0.90;;
48651;SDS011;34442;52.362;-1.302;2022-07-23T15:01:56;2.17;;;0.90;;
48651;SDS011;34442;52.362;-1.302;2022-07-23T15:04:22;1.50;;;0.80;;
48651;SDS011;34442;52.362;-1.302;2022-07-23T15:06:49;2.17;;;0.95;;
48651;SDS011;34442;52.362;-1.302;2022-07-23T15:09:15;1.73;;;1.10;;
48651;SDS011;34442;52.362;-1.302;2022-07-23T15:11:41;1.50;;;0.95;;
48651;SDS011;34442;52.362;-1.302;2022-07-23T15:14:07;0.70;;;0.70;;
48651;SDS011;34442;52.362;-1.302;2022-07-23T15:16:34;1.42;;;0.85;;
48651;SDS011;34442;52.362;-1.302;2022-07-23T15:19:01;1.98;;;1.00;;
48651;SDS011;34442;52.362;-1.302;2022-07-23T15:21:28;2.00;;;0.95;;
48651;SDS011;34442;52.362;-1.302;2022-07-23T15:23:57;1.27;;;0.73;;
48651;SDS011;34442;52.362;-1.302;2022-07-23T15:26:27;1.42;;;0.80;;
48651;SDS011;34442;52.362;-1.302;2022-07-23T15:28:55;1.08;;;0.70;;
48651;SDS011;34442;52.362;-1.302;2022-07-23T15:31:22;1.58;;;0.82;;
48651;SDS011;34442;52.362;-1.302;2022-07-23T15:33:48;1.85;;;0.90;;